sensor_id;sensor_type;location;lat;lon;timestamp;pressure;altitude;pressure_sealevel;temperature;humidity
43155;BME280;34212;51.018;13.586;2023-08-01T00:03:11;96719.22;;;20.19;67.12
43155;BME280;34212;51.018;13.586;2023-08-01T00:08:14;96710.53;;;20.17;67.21
43155;BME280;34212;51.018;13.586;2023-08-01T00:13:16;96701.03;;;20.14;67.32
43155;BME280;34212;51.018;13.586;2023-08-01T00:18:17;96698.34;;;20.14;67.48
43155;BME280;34212;51.018;13.586;2023-08-01T00:23:19;96693.47;;;20.11;67.48
43155;BME280;34212;51.018;13.586;2023-08-01T00:28:24;96668.56;;;20.09;67.64
43155;BME280;34212;51.018;13.586;2023-08-01T00:33:25;96666.13;;;20.07;67.52
43155;BME280;34212;51.018;13.586;2023-08-01T00:38:27;96655.31;;;20.07;67.66
43155;BME280;34212;51.018;13.586;2023-08-01T00:43:28;96642.84;;;20.06;67.73
43155;BME280;34212;51.018;13.586;2023-08-01T00:48:30;96632.84;;;20.07;67.74
43155;BME280;34212;51.018;13.586;2023-08-01T00:53:32;96636.63;;;20.06;67.66
43155;BME280;34212;51.018;13.586;2023-08-01T00:58:35;96630.13;;;20.07;68.08
43155;BME280;34212;51.018;13.586;2023-08-01T01:03:38;96608.50;;;20.07;67.48
43155;BME280;34212;51.018;13.586;2023-08-01T01:08:39;96612.81;;;20.08;67.12
43155;BME280;34212;51.018;13.586;2023-08-01T01:13:41;96602.78;;;20.08;67.23
43155;BME280;34212;51.018;13.586;2023-08-01T01:18:43;96601.97;;;20.08;67.33
43155;BME280;34212;51.018;13.586;2023-08-01T01:23:45;96591.69;;;20.05;67.41
43155;BME280;34212;51.018;13.586;2023-08-01T01:28:50;96580.31;;;20.03;67.47
43155;BME280;34212;51.018;13.586;2023-08-01T01:33:52;96581.69;;;20.00;67.33
43155;BME280;34212;51.018;13.586;2023-08-01T01:38:54;96581.16;;;19.98;67.30
43155;BME280;34212;51.018;13.586;2023-08-01T01:43:56;96571.41;;;19.97;67.67
43155;BME280;34212;51.018;13.586;2023-08-01T01:48:57;96578.72;;;19.92;67.25
43155;BME280;34212;51.018;13.586;2023-08-01T01:53:59;96570.88;;;19.85;67.92
43155;BME280;34212;51.018;13.586;2023-08-01T01:59:01;96562.44;;;19.71;69.00
43155;BME280;34212;51.018;13.586;2023-08-01T02:04:02;96566.19;;;19.55;69.77
43155;BME280;34212;51.018;13.586;2023-08-01T02:09:04;96552.09;;;19.43;70.51
43155;BME280;34212;51.018;13.586;2023-08-01T02:14:06;96538.56;;;19.37;70.69
43155;BME280;34212;51.018;13.586;2023-08-01T02:19:07;96533.44;;;19.36;71.06
43155;BME280;34212;51.018;13.586;2023-08-01T02:24:10;96520.44;;;19.33;71.27
43155;BME280;34212;51.018;13.586;2023-08-01T02:29:12;96518.53;;;19.33;71.67
43155;BME280;34212;51.018;13.586;2023-08-01T02:34:14;96510.44;;;19.33;71.53
43155;BME280;34212;51.018;13.586;2023-08-01T02:39:15;96507.19;;;19.31;71.68
43155;BME280;34212;51.018;13.586;2023-08-01T02:44:17;96496.38;;;19.31;71.82
43155;BME280;34212;51.018;13.586;2023-08-01T02:49:18;96482.31;;;19.29;72.07
43155;BME280;34212;51.018;13.586;2023-08-01T02:54:20;96476.38;;;19.27;72.30
43155;BME280;34212;51.018;13.586;2023-08-01T02:59:21;96454.22;;;19.25;72.32
43155;BME280;34212;51.018;13.586;2023-08-01T03:04:23;96452.06;;;19.22;73.04
43155;BME280;34212;51.018;13.586;2023-08-01T03:09:44;96441.25;;;19.22;72.67
43155;BME280;34212;51.018;13.586;2023-08-01T03:14:46;96431.50;;;19.21;72.54
43155;BME280;34212;51.018;13.586;2023-08-01T03:19:49;96437.44;;;19.18;72.72
43155;BME280;34212;51.018;13.586;2023-08-01T03:24:51;96422.56;;;19.15;73.10
43155;BME280;34212;51.018;13.586;2023-08-01T03:29:53;96401.78;;;19.16;73.09
43155;BME280;34212;51.018;13.586;2023-08-01T03:34:54;96388.28;;;19.16;73.18
43155;BME280;34212;51.018;13.586;2023-08-01T03:39:56;96386.63;;;19.15;73.09
43155;BME280;34212;51.018;13.586;2023-08-01T03:44:57;96383.94;;;19.15;72.93
43155;BME280;34212;51.018;13.586;2023-08-01T03:49:59;96379.63;;;19.14;73.57
43155;BME280;34212;51.018;13.586;2023-08-01T03:55:00;96363.13;;;19.15;73.59
43155;BME280;34212;51.018;13.586;2023-08-01T04:00:02;96356.38;;;19.18;73.52
43155;BME280;34212;51.018;13.586;2023-08-01T04:05:12;96353.41;;;19.20;73.68
43155;BME280;34212;51.018;13.586;2023-08-01T04:10:14;96352.88;;;19.23;73.45
43155;BME280;34212;51.018;13.586;2023-08-01T04:15:15;96349.06;;;19.24;73.16
43155;BME280;34212;51.018;13.586;2023-08-01T04:20:17;96348.28;;;19.23;73.08
43155;BME280;34212;51.018;13.586;2023-08-01T04:25:18;96349.38;;;19.22;73.03
43155;BME280;34212;51.018;13.586;2023-08-01T04:30:20;96336.38;;;19.24;73.43
43155;BME280;34212;51.018;13.586;2023-08-01T04:35:21;96326.91;;;19.27;73.31
43155;BME280;34212;51.018;13.586;2023-08-01T04:40:23;96322.03;;;19.34;73.38
43155;BME280;34212;51.018;13.586;2023-08-01T04:45:25;96326.63;;;19.44;73.44
43155;BME280;34212;51.018;13.586;2023-08-01T04:50:26;96315.25;;;19.47;73.33
43155;BME280;34212;51.018;13.586;2023-08-01T04:55:28;96303.91;;;19.50;73.48
43155;BME280;34212;51.018;13.586;2023-08-01T05:00:29;96297.69;;;19.49;73.68
43155;BME280;34212;51.018;13.586;2023-08-01T05:05:31;96290.94;;;19.47;73.74
43155;BME280;34212;51.018;13.586;2023-08-01T05:10:32;96290.66;;;19.43;73.98
43155;BME280;34212;51.018;13.586;2023-08-01T05:15:34;96285.56;;;19.42;74.04
43155;BME280;34212;51.018;13.586;2023-08-01T05:20:35;96290.16;;;19.41;74.22
43155;BME280;34212;51.018;13.586;2023-08-01T05:25:37;96281.75;;;19.43;74.44
43155;BME280;34212;51.018;13.586;2023-08-01T05:30:39;96277.69;;;19.45;74.97
43155;BME280;34212;51.018;13.586;2023-08-01T05:35:41;96286.06;;;19.49;74.85
43155;BME280;34212;51.018;13.586;2023-08-01T05:40:42;96265.25;;;19.49;74.84
43155;BME280;34212;51.018;13.586;2023-08-01T05:45:44;96267.69;;;19.51;75.07
43155;BME280;34212;51.018;13.586;2023-08-01T05:50:45;96258.47;;;19.52;75.38
43155;BME280;34212;51.018;13.586;2023-08-01T05:55:47;96252.78;;;19.58;75.40
43155;BME280;34212;51.018;13.586;2023-08-01T06:00:49;96243.59;;;19.70;75.59
43155;BME280;34212;51.018;13.586;2023-08-01T06:05:50;96244.66;;;19.74;75.58
43155;BME280;34212;51.018;13.586;2023-08-01T06:10:52;96235.19;;;19.81;75.62
43155;BME280;34212;51.018;13.586;2023-08-01T06:15:53;96238.94;;;19.91;75.63
43155;BME280;34212;51.018;13.586;2023-08-01T06:20:55;96227.81;;;19.97;75.74
43155;BME280;34212;51.018;13.586;2023-08-01T06:25:57;96239.41;;;19.98;75.64
43155;BME280;34212;51.018;13.586;2023-08-01T06:30:58;96242.69;;;19.95;75.79
43155;BME280;34212;51.018;13.586;2023-08-01T06:36:00;96242.44;;;19.86;76.16
43155;BME280;34212;51.018;13.586;2023-08-01T06:41:01;96236.28;;;19.75;76.75
43155;BME280;34212;51.018;13.586;2023-08-01T06:46:02;96234.94;;;19.68;76.99
43155;BME280;34212;51.018;13.586;2023-08-01T06:51:04;96234.13;;;19.67;77.42
43155;BME280;34212;51.018;13.586;2023-08-01T06:56:06;96228.19;;;19.70;77.45
43155;BME280;34212;51.018;13.586;2023-08-01T07:01:08;96220.84;;;19.76;77.41
43155;BME280;34212;51.018;13.586;2023-08-01T07:06:09;96226.53;;;19.79;77.74
43155;BME280;34212;51.018;13.586;2023-08-01T07:11:11;96227.06;;;19.81;77.94
43155;BME280;34212;51.018;13.586;2023-08-01T07:16:12;96222.94;;;19.94;77.91
43155;BME280;34212;51.018;13.586;2023-08-01T07:21:14;96211.75;;;20.11;78.18
43155;BME280;34212;51.018;13.586;2023-08-01T07:26:16;96218.13;;;20.30;78.31
43155;BME280;34212;51.018;13.586;2023-08-01T07:31:17;96216.44;;;20.40;77.76
43155;BME280;34212;51.018;13.586;2023-08-01T07:36:19;96223.19;;;20.42;78.07
43155;BME280;34212;51.018;13.586;2023-08-01T07:41:22;96228.63;;;20.37;77.94
43155;BME280;34212;51.018;13.586;2023-08-01T07:46:24;96210.78;;;20.36;78.39
43155;BME280;34212;51.018;13.586;2023-08-01T07:51:26;96212.38;;;20.42;78.62
43155;BME280;34212;51.018;13.586;2023-08-01T07:56:27;96214.75;;;20.54;78.57
43155;BME280;34212;51.018;13.586;2023-08-01T08:01:29;96217.13;;;20.66;78.42
43155;BME280;34212;51.018;13.586;2023-08-01T08:06:31;96214.88;;;20.73;77.93
43155;BME280;34212;51.018;13.586;2023-08-01T08:11:33;96206.75;;;20.73;77.80
43155;BME280;34212;51.018;13.586;2023-08-01T08:16:34;96204.81;;;20.79;78.00
43155;BME280;34212;51.018;13.586;2023-08-01T08:21:36;96211.00;;;20.84;77.59
43155;BME280;34212;51.018;13.586;2023-08-01T08:26:38;96201.25;;;20.83;77.57
43155;BME280;34212;51.018;13.586;2023-08-01T08:31:42;96200.44;;;20.83;77.24
43155;BME280;34212;51.018;13.586;2023-08-01T08:36:43;96210.75;;;20.81;77.62
43155;BME280;34212;51.018;13.586;2023-08-01T08:41:47;96205.31;;;20.81;77.11
43155;BME280;34212;51.018;13.586;2023-08-01T08:46:50;96208.56;;;20.83;77.38
43155;BME280;34212;51.018;13.586;2023-08-01T08:51:54;96211.81;;;20.85;76.95
43155;BME280;34212;51.018;13.586;2023-08-01T08:56:55;96221.53;;;20.86;77.36
43155;BME280;34212;51.018;13.586;2023-08-01T09:01:58;96213.41;;;20.86;77.25
43155;BME280;34212;51.018;13.586;2023-08-01T09:07:07;96197.69;;;20.88;77.28
43155;BME280;34212;51.018;13.586;2023-08-01T09:12:09;96209.16;;;20.74;77.48
43155;BME280;34212;51.018;13.586;2023-08-01T09:17:11;96195.81;;;20.54;78.03
43155;BME280;34212;51.018;13.586;2023-08-01T09:22:13;96204.25;;;20.42;78.37
43155;BME280;34212;51.018;13.586;2023-08-01T09:27:15;96190.16;;;20.40;78.98
43155;BME280;34212;51.018;13.586;2023-08-01T09:32:16;96164.66;;;20.46;78.81
43155;BME280;34212;51.018;13.586;2023-08-01T09:37:19;96187.06;;;20.62;78.21
43155;BME280;34212;51.018;13.586;2023-08-01T09:42:23;96182.63;;;20.71;77.98
43155;BME280;34212;51.018;13.586;2023-08-01T09:47:36;96162.50;;;20.83;77.44
43155;BME280;34212;51.018;13.586;2023-08-01T09:52:37;96152.13;;;20.90;76.96
43155;BME280;34212;51.018;13.586;2023-08-01T09:57:40;96143.97;;;20.95;76.43
43155;BME280;34212;51.018;13.586;2023-08-01T10:02:43;96152.41;;;20.93;75.75
43155;BME280;34212;51.018;13.586;2023-08-01T10:07:45;96170.25;;;20.94;75.25
43155;BME280;34212;51.018;13.586;2023-08-01T10:12:49;96176.94;;;21.02;75.26
43155;BME280;34212;51.018;13.586;2023-08-01T10:17:51;96176.28;;;21.15;74.96
43155;BME280;34212;51.018;13.586;2023-08-01T10:22:54;96183.44;;;21.30;73.66
43155;BME280;34212;51.018;13.586;2023-08-01T10:28:03;96186.81;;;21.46;72.78
43155;BME280;34212;51.018;13.586;2023-08-01T10:33:05;96195.81;;;21.65;72.37
43155;BME280;34212;51.018;13.586;2023-08-01T10:38:07;96194.75;;;21.85;71.55
43155;BME280;34212;51.018;13.586;2023-08-01T10:43:22;96194.72;;;22.09;70.73
43155;BME280;34212;51.018;13.586;2023-08-01T10:48:24;96202.59;;;22.30;70.12
43155;BME280;34212;51.018;13.586;2023-08-01T10:53:26;96198.56;;;22.46;70.29
43155;BME280;34212;51.018;13.586;2023-08-01T10:58:28;96176.66;;;22.56;68.90
43155;BME280;34212;51.018;13.586;2023-08-01T11:03:36;96182.31;;;22.60;67.62
43155;BME280;34212;51.018;13.586;2023-08-01T11:08:40;96175.47;;;22.63;67.53
43155;BME280;34212;51.018;13.586;2023-08-01T11:13:50;96169.66;;;22.69;66.59
43155;BME280;34212;51.018;13.586;2023-08-01T11:18:52;96168.28;;;22.72;66.12
43155;BME280;34212;51.018;13.586;2023-08-01T11:23:53;96173.69;;;22.72;65.91
43155;BME280;34212;51.018;13.586;2023-08-01T11:28:55;96177.34;;;22.81;66.24
43155;BME280;34212;51.018;13.586;2023-08-01T11:33:57;96180.31;;;22.98;66.21
43155;BME280;34212;51.018;13.586;2023-08-01T11:38:59;96179.06;;;23.10;65.65
43155;BME280;34212;51.018;13.586;2023-08-01T11:44:02;96171.50;;;23.07;64.56
43155;BME280;34212;51.018;13.586;2023-08-01T11:49:08;96175.69;;;22.99;64.14
43155;BME280;34212;51.018;13.586;2023-08-01T11:54:10;96168.47;;;22.75;64.36
43155;BME280;34212;51.018;13.586;2023-08-01T11:59:14;96196.78;;;22.55;65.01
43155;BME280;34212;51.018;13.586;2023-08-01T12:04:27;96259.78;;;22.14;66.44
43155;BME280;34212;51.018;13.586;2023-08-01T12:09:31;96251.78;;;20.64;70.58
43155;BME280;34212;51.018;13.586;2023-08-01T12:14:39;96265.22;;;19.70;73.98
43155;BME280;34212;51.018;13.586;2023-08-01T12:19:41;96275.31;;;19.18;76.36
43155;BME280;34212;51.018;13.586;2023-08-01T12:24:43;96269.66;;;18.94;78.12
43155;BME280;34212;51.018;13.586;2023-08-01T12:29:45;96273.16;;;18.79;79.62
43155;BME280;34212;51.018;13.586;2023-08-01T12:34:46;96286.34;;;18.70;80.81
43155;BME280;34212;51.018;13.586;2023-08-01T12:39:48;96302.28;;;18.67;82.21
43155;BME280;34212;51.018;13.586;2023-08-01T12:44:49;96315.25;;;18.70;82.82
43155;BME280;34212;51.018;13.586;2023-08-01T12:49:51;96320.66;;;18.70;83.26
43155;BME280;34212;51.018;13.586;2023-08-01T12:54:52;96319.06;;;18.79;83.96
43155;BME280;34212;51.018;13.586;2023-08-01T12:59:54;96334.75;;;19.03;84.92
43155;BME280;34212;51.018;13.586;2023-08-01T13:04:55;96324.47;;;19.30;85.50
43155;BME280;34212;51.018;13.586;2023-08-01T13:09:57;96318.78;;;19.63;85.74
43155;BME280;34212;51.018;13.586;2023-08-01T13:14:58;96330.41;;;19.73;86.03
43155;BME280;34212;51.018;13.586;2023-08-01T13:20:17;96316.31;;;19.81;86.74
43155;BME280;34212;51.018;13.586;2023-08-01T13:25:19;96313.47;;;20.17;86.92
43155;BME280;34212;51.018;13.586;2023-08-01T13:30:20;96316.47;;;20.70;86.61
43155;BME280;34212;51.018;13.586;2023-08-01T13:35:22;96328.22;;;20.95;86.02
43155;BME280;34212;51.018;13.586;2023-08-01T13:40:25;96319.66;;;20.77;85.44
43155;BME280;34212;51.018;13.586;2023-08-01T13:45:30;96318.16;;;20.61;86.46
43155;BME280;34212;51.018;13.586;2023-08-01T13:50:32;96337.03;;;20.71;87.75
43155;BME280;34212;51.018;13.586;2023-08-01T13:55:33;96333.50;;;20.76;86.80
43155;BME280;34212;51.018;13.586;2023-08-01T14:00:35;96334.31;;;20.71;86.18
43155;BME280;34212;51.018;13.586;2023-08-01T14:05:36;96343.00;;;20.68;86.24
43155;BME280;34212;51.018;13.586;2023-08-01T14:10:38;96333.22;;;20.77;86.54
43155;BME280;34212;51.018;13.586;2023-08-01T14:15:40;96331.53;;;20.87;85.55
43155;BME280;34212;51.018;13.586;2023-08-01T14:20:41;96330.69;;;20.91;85.97
43155;BME280;34212;51.018;13.586;2023-08-01T14:25:42;96316.50;;;21.05;86.10
43155;BME280;34212;51.018;13.586;2023-08-01T14:30:45;96327.53;;;21.18;86.25
43155;BME280;34212;51.018;13.586;2023-08-01T14:35:46;96314.94;;;21.28;84.49
43155;BME280;34212;51.018;13.586;2023-08-01T14:40:48;96323.41;;;21.21;84.06
43155;BME280;34212;51.018;13.586;2023-08-01T14:53:05;96330.16;;;21.23;84.25
43155;BME280;34212;51.018;13.586;2023-08-01T14:58:08;96323.06;;;21.28;83.36
43155;BME280;34212;51.018;13.586;2023-08-01T15:03:10;96343.38;;;21.35;82.83
43155;BME280;34212;51.018;13.586;2023-08-01T15:08:12;96336.78;;;21.47;81.93
43155;BME280;34212;51.018;13.586;2023-08-01T15:13:13;96352.78;;;21.48;81.71
43155;BME280;34212;51.018;13.586;2023-08-01T15:18:15;96361.72;;;21.49;81.70
43155;BME280;34212;51.018;13.586;2023-08-01T15:23:16;96369.16;;;21.28;79.37
43155;BME280;34212;51.018;13.586;2023-08-01T15:28:18;96381.78;;;21.08;79.74
43155;BME280;34212;51.018;13.586;2023-08-01T15:33:19;96394.34;;;20.94;78.53
43155;BME280;34212;51.018;13.586;2023-08-01T15:38:21;96393.34;;;20.85;78.91
43155;BME280;34212;51.018;13.586;2023-08-01T15:43:24;96388.94;;;20.94;79.01
43155;BME280;34212;51.018;13.586;2023-08-01T15:48:26;96405.38;;;21.08;78.70
43155;BME280;34212;51.018;13.586;2023-08-01T15:53:28;96392.28;;;21.20;77.86
43155;BME280;34212;51.018;13.586;2023-08-01T15:58:30;96400.91;;;21.27;77.33
43155;BME280;34212;51.018;13.586;2023-08-01T16:03:31;96399.53;;;21.30;77.03
43155;BME280;34212;51.018;13.586;2023-08-01T16:08:33;96393.47;;;21.43;75.93
43155;BME280;34212;51.018;13.586;2023-08-01T16:13:35;96383.56;;;21.62;75.46
43155;BME280;34212;51.018;13.586;2023-08-01T16:18:37;96384.50;;;21.77;74.54
43155;BME280;34212;51.018;13.586;2023-08-01T16:23:38;96389.91;;;21.82;73.24
43155;BME280;34212;51.018;13.586;2023-08-01T16:28:40;96393.28;;;21.68;71.66
43155;BME280;34212;51.018;13.586;2023-08-01T16:33:42;96415.34;;;21.57;70.54
43155;BME280;34212;51.018;13.586;2023-08-01T16:38:44;96423.88;;;21.40;68.87
43155;BME280;34212;51.018;13.586;2023-08-01T16:43:45;96425.22;;;21.42;69.13
43155;BME280;34212;51.018;13.586;2023-08-01T16:48:47;96433.47;;;21.61;69.14
43155;BME280;34212;51.018;13.586;2023-08-01T16:53:48;96440.56;;;21.57;68.84
43155;BME280;34212;51.018;13.586;2023-08-01T16:58:50;96440.66;;;21.47;69.30
43155;BME280;34212;51.018;13.586;2023-08-01T17:03:52;96454.81;;;21.34;69.80
43155;BME280;34212;51.018;13.586;2023-08-01T17:09:21;96447.53;;;21.24;69.52
43155;BME280;34212;51.018;13.586;2023-08-01T17:14:56;96453.34;;;21.12;69.99
43155;BME280;34212;51.018;13.586;2023-08-01T17:27:56;96438.50;;;21.44;70.44
43155;BME280;34212;51.018;13.586;2023-08-01T17:33:44;96446.28;;;21.56;69.71
43155;BME280;34212;51.018;13.586;2023-08-01T17:38:46;96455.47;;;21.60;68.99
43155;BME280;34212;51.018;13.586;2023-08-01T17:43:47;96451.44;;;21.52;68.99
43155;BME280;34212;51.018;13.586;2023-08-01T17:48:50;96464.84;;;21.33;68.44
43155;BME280;34212;51.018;13.586;2023-08-01T17:53:51;96468.50;;;21.13;67.91
43155;BME280;34212;51.018;13.586;2023-08-01T17:58:56;96471.28;;;20.98;68.02
43155;BME280;34212;51.018;13.586;2023-08-01T18:03:58;96480.84;;;20.85;68.50
43155;BME280;34212;51.018;13.586;2023-08-01T18:09:00;96494.69;;;20.79;68.74
43155;BME280;34212;51.018;13.586;2023-08-01T18:14:01;96487.63;;;20.77;69.04
43155;BME280;34212;51.018;13.586;2023-08-01T18:19:03;96490.63;;;20.76;69.14
43155;BME280;34212;51.018;13.586;2023-08-01T18:24:04;96493.38;;;20.66;69.64
43155;BME280;34212;51.018;13.586;2023-08-01T18:29:07;96499.34;;;20.52;69.58
43155;BME280;34212;51.018;13.586;2023-08-01T18:34:09;96500.47;;;20.36;69.38
43155;BME280;34212;51.018;13.586;2023-08-01T18:39:10;96516.72;;;20.21;69.55
43155;BME280;34212;51.018;13.586;2023-08-01T18:44:12;96528.09;;;20.07;69.73
43155;BME280;34212;51.018;13.586;2023-08-01T18:49:13;96535.41;;;19.97;70.62
43155;BME280;34212;51.018;13.586;2023-08-01T18:54:15;96554.91;;;19.89;71.16
43155;BME280;34212;51.018;13.586;2023-08-01T18:59:17;96556.75;;;19.78;71.39
43155;BME280;34212;51.018;13.586;2023-08-01T19:04:18;96570.28;;;19.68;72.16
43155;BME280;34212;51.018;13.586;2023-08-01T19:09:20;96584.56;;;19.58;72.74
43155;BME280;34212;51.018;13.586;2023-08-01T19:14:22;96581.84;;;19.48;73.07
43155;BME280;34212;51.018;13.586;2023-08-01T19:20:01;96574.25;;;19.39;72.85
43155;BME280;34212;51.018;13.586;2023-08-01T19:25:55;96584.22;;;19.29;72.92
43155;BME280;34212;51.018;13.586;2023-08-01T19:39:11;96603.06;;;19.08;74.26
43155;BME280;34212;51.018;13.586;2023-08-01T19:45:19;96606.28;;;19.05;74.66
43155;BME280;34212;51.018;13.586;2023-08-01T19:51:30;96620.59;;;19.06;74.38
43155;BME280;34212;51.018;13.586;2023-08-01T19:57:28;96620.06;;;19.04;74.09
43155;BME280;34212;51.018;13.586;2023-08-01T20:04:07;96628.09;;;18.93;74.59
43155;BME280;34212;51.018;13.586;2023-08-01T20:10:44;96646.44;;;18.86;75.00
43155;BME280;34212;51.018;13.586;2023-08-01T20:17:38;96651.25;;;18.79;75.67
43155;BME280;34212;51.018;13.586;2023-08-01T20:38:07;96668.13;;;18.64;76.92
43155;BME280;34212;51.018;13.586;2023-08-01T20:44:45;96670.53;;;18.61;77.43
43155;BME280;34212;51.018;13.586;2023-08-01T20:51:09;96680.25;;;18.62;77.75
43155;BME280;34212;51.018;13.586;2023-08-01T20:56:11;96666.22;;;18.65;77.62
43155;BME280;34212;51.018;13.586;2023-08-01T21:01:13;96673.81;;;18.68;77.64
43155;BME280;34212;51.018;13.586;2023-08-01T21:06:15;96664.63;;;18.64;77.94
43155;BME280;34212;51.018;13.586;2023-08-01T21:11:17;96671.63;;;18.60;78.10
43155;BME280;34212;51.018;13.586;2023-08-01T21:16:19;96666.47;;;18.58;78.32
43155;BME280;34212;51.018;13.586;2023-08-01T21:21:21;96687.25;;;18.58;78.42
43155;BME280;34212;51.018;13.586;2023-08-01T21:26:22;96685.13;;;18.60;78.37
43155;BME280;34212;51.018;13.586;2023-08-01T21:31:24;96688.34;;;18.62;78.76
43155;BME280;34212;51.018;13.586;2023-08-01T21:36:27;96682.41;;;18.60;78.68
43155;BME280;34212;51.018;13.586;2023-08-01T21:41:29;96687.53;;;18.61;78.82
43155;BME280;34212;51.018;13.586;2023-08-01T21:46:30;96682.41;;;18.60;78.41
43155;BME280;34212;51.018;13.586;2023-08-01T21:51:32;96678.06;;;18.59;78.37
43155;BME280;34212;51.018;13.586;2023-08-01T21:56:33;96700.75;;;18.58;78.50
43155;BME280;34212;51.018;13.586;2023-08-01T22:01:35;96699.38;;;18.55;78.19
43155;BME280;34212;51.018;13.586;2023-08-01T22:06:37;96703.97;;;18.55;78.48
43155;BME280;34212;51.018;13.586;2023-08-01T22:11:38;96705.84;;;18.54;78.24
43155;BME280;34212;51.018;13.586;2023-08-01T22:16:40;96706.09;;;18.53;78.30
43155;BME280;34212;51.018;13.586;2023-08-01T22:21:42;96693.13;;;18.50;78.07
43155;BME280;34212;51.018;13.586;2023-08-01T22:26:43;96699.53;;;18.43;77.96
43155;BME280;34212;51.018;13.586;2023-08-01T22:31:45;96699.00;;;18.41;77.94
43155;BME280;34212;51.018;13.586;2023-08-01T22:36:47;96700.88;;;18.41;77.86
43155;BME280;34212;51.018;13.586;2023-08-01T22:41:48;96693.28;;;18.38;77.85
43155;BME280;34212;51.018;13.586;2023-08-01T22:46:50;96696.75;;;18.33;77.71
43155;BME280;34212;51.018;13.586;2023-08-01T22:51:51;96696.69;;;18.28;77.19
43155;BME280;34212;51.018;13.586;2023-08-01T22:56:54;96691.81;;;18.25;76.96
43155;BME280;34212;51.018;13.586;2023-08-01T23:01:56;96695.03;;;18.22;77.22
43155;BME280;34212;51.018;13.586;2023-08-01T23:06:58;96698.22;;;18.19;77.03
43155;BME280;34212;51.018;13.586;2023-08-01T23:11:59;96699.31;;;18.18;77.13
43155;BME280;34212;51.018;13.586;2023-08-01T23:17:01;96707.69;;;18.16;77.01
43155;BME280;34212;51.018;13.586;2023-08-01T23:22:02;96711.13;;;18.12;76.89
43155;BME280;34212;51.018;13.586;2023-08-01T23:27:04;96710.63;;;18.15;77.64
43155;BME280;34212;51.018;13.586;2023-08-01T23:32:06;96713.88;;;18.17;77.63
43155;BME280;34212;51.018;13.586;2023-08-01T23:37:07;96716.00;;;18.15;77.76
43155;BME280;34212;51.018;13.586;2023-08-01T23:42:08;96716.81;;;18.15;77.68
43155;BME280;34212;51.018;13.586;2023-08-01T23:47:10;96709.00;;;18.14;77.77
43155;BME280;34212;51.018;13.586;2023-08-01T23:52:11;96706.25;;;18.09;77.64
43155;BME280;34212;51.018;13.586;2023-08-01T23:57:13;96707.25;;;18.03;77.63
